createdAt,value
2022-12-17T00:00:51.852Z,79.70
2022-12-17T00:01:51.776Z,81.20
2022-12-17T00:02:51.827Z,81.70
2022-12-17T00:03:51.870Z,81.60
2022-12-17T00:04:51.718Z,81.60
2022-12-17T00:05:51.718Z,82.50
2022-12-17T00:06:51.719Z,84.90
2022-12-17T00:07:51.697Z,85.50
2022-12-17T00:08:51.679Z,86.30
2022-12-17T00:09:51.689Z,89.30
2022-12-17T00:10:51.666Z,87.50
2022-12-17T00:11:51.669Z,89.30
2022-12-17T00:12:51.649Z,86.40
2022-12-17T00:13:51.629Z,85.20
2022-12-17T00:14:51.639Z,84.20
2022-12-17T00:15:51.664Z,85.60
2022-12-17T00:16:51.628Z,83.10
2022-12-17T00:17:51.603Z,82.20
2022-12-17T00:18:51.595Z,83.20
2022-12-17T00:19:51.571Z,82.00
2022-12-17T00:20:51.572Z,80.60
2022-12-17T00:21:51.572Z,81.10
2022-12-17T00:22:51.550Z,80.20
2022-12-17T00:23:51.541Z,82.90
2022-12-17T00:24:51.531Z,81.40
2022-12-17T00:25:51.511Z,83.70
2022-12-17T00:26:51.521Z,83.00
2022-12-17T00:27:51.501Z,84.20
2022-12-17T00:28:51.491Z,83.70
2022-12-17T00:29:51.480Z,81.20
2022-12-17T00:30:51.472Z,79.70
2022-12-17T00:31:51.560Z,82.60
2022-12-17T00:32:51.453Z,79.60
2022-12-17T00:33:51.443Z,78.20
2022-12-17T00:34:51.433Z,76.00
2022-12-17T00:35:51.426Z,76.80
2022-12-17T00:36:51.435Z,75.20
2022-12-17T00:37:51.404Z,76.70
2022-12-17T00:38:51.394Z,76.80
2022-12-17T00:39:53.584Z,76.70
2022-12-17T00:40:52.375Z,77.80
2022-12-17T00:41:51.385Z,79.40
2022-12-17T00:42:51.362Z,74.50
2022-12-17T00:43:51.344Z,77.60
2022-12-17T00:44:51.336Z,78.80
2022-12-17T00:45:51.327Z,77.80
2022-12-17T00:46:51.418Z,77.30
2022-12-17T00:47:51.308Z,77.30
2022-12-17T00:48:51.295Z,75.60
2022-12-17T00:49:51.287Z,76.90
2022-12-17T00:50:51.277Z,76.10
2022-12-17T00:51:51.286Z,73.80
2022-12-17T00:52:51.268Z,71.70
2022-12-17T00:53:51.247Z,68.30
2022-12-17T00:54:51.237Z,66.20
2022-12-17T00:55:51.239Z,64.50
2022-12-17T00:56:51.244Z,64.50
2022-12-17T00:57:51.218Z,61.60
2022-12-17T00:58:51.207Z,58.50
2022-12-17T00:59:51.188Z,59.30
2022-12-17T01:00:51.227Z,56.50
2022-12-17T01:01:51.360Z,60.90
2022-12-17T01:02:51.241Z,60.00
2022-12-17T01:03:51.168Z,59.60
2022-12-17T01:04:51.161Z,59.60
2022-12-17T01:05:51.138Z,61.20
2022-12-17T01:06:51.129Z,61.80
2022-12-17T01:07:51.134Z,57.60
2022-12-17T01:08:51.112Z,57.70
2022-12-17T01:09:51.110Z,55.60
2022-12-17T01:10:51.092Z,55.30
2022-12-17T01:11:51.081Z,56.20
2022-12-17T01:12:51.093Z,56.30
2022-12-17T01:13:51.062Z,52.80
2022-12-17T01:14:51.059Z,56.70
2022-12-17T01:15:51.101Z,52.10
2022-12-17T01:16:51.134Z,54.00
2022-12-17T01:17:51.040Z,50.80
2022-12-17T01:18:51.022Z,55.40
2022-12-17T01:19:51.002Z,49.40
2022-12-17T01:20:50.995Z,50.60
2022-12-17T01:21:50.990Z,45.00
2022-12-17T01:22:51.000Z,44.70
2022-12-17T01:23:50.963Z,44.60
2022-12-17T01:24:50.960Z,43.40
2022-12-17T01:25:50.954Z,43.40
2022-12-17T01:26:50.945Z,44.40
2022-12-17T01:27:50.949Z,43.70
2022-12-17T01:28:50.924Z,42.90
2022-12-17T01:29:50.913Z,45.00
2022-12-17T01:30:50.916Z,44.10
2022-12-17T01:31:50.943Z,46.10
2022-12-17T01:32:50.904Z,49.10
2022-12-17T01:33:50.874Z,49.40
2022-12-17T01:34:50.874Z,51.10
2022-12-17T01:35:50.845Z,50.30
2022-12-17T01:36:50.849Z,49.60
2022-12-17T01:37:50.907Z,48.10
2022-12-17T01:38:50.832Z,51.10
2022-12-17T01:39:50.809Z,48.30
2022-12-17T01:40:50.805Z,51.00
2022-12-17T01:41:50.806Z,50.20
2022-12-17T01:42:50.875Z,50.20
2022-12-17T01:43:50.779Z,49.90
2022-12-17T01:44:50.786Z,53.90
2022-12-17T01:45:50.801Z,52.40
2022-12-17T01:46:50.755Z,56.40
2022-12-17T01:47:50.761Z,54.10
2022-12-17T01:48:50.735Z,52.90
2022-12-17T01:49:50.717Z,56.60
2022-12-17T01:50:50.718Z,57.10
2022-12-17T01:51:50.700Z,50.10
2022-12-17T01:52:50.708Z,56.00
2022-12-17T01:53:50.678Z,51.90
2022-12-17T01:54:50.678Z,48.50
2022-12-17T01:55:50.661Z,52.60
2022-12-17T01:56:50.656Z,52.30
2022-12-17T01:57:50.659Z,54.80
2022-12-17T01:58:50.640Z,47.60
2022-12-17T01:59:50.650Z,54.70
2022-12-17T02:00:50.812Z,50.10
2022-12-17T02:01:50.907Z,47.70
2022-12-17T02:02:50.791Z,50.80
2022-12-17T02:03:50.617Z,54.40
2022-12-17T02:04:50.580Z,52.00
2022-12-17T02:05:50.567Z,50.90
2022-12-17T02:06:50.558Z,55.00
2022-12-17T02:07:50.659Z,46.10
2022-12-17T02:08:50.550Z,53.90
2022-12-17T02:09:50.528Z,49.50
2022-12-17T02:10:50.521Z,47.60
2022-12-17T02:11:50.510Z,54.90
2022-12-17T02:12:50.521Z,50.30
2022-12-17T02:13:50.490Z,49.70
2022-12-17T02:14:50.481Z,54.40
2022-12-17T02:15:50.481Z,51.20
2022-12-17T02:16:50.493Z,53.30
2022-12-17T02:17:50.472Z,53.30
2022-12-17T02:18:50.444Z,54.00
2022-12-17T02:19:50.450Z,55.80
2022-12-17T02:20:50.431Z,46.50
2022-12-17T02:21:50.412Z,53.80
2022-12-17T02:22:50.423Z,51.70
2022-12-17T02:23:50.403Z,49.40
2022-12-17T02:24:50.383Z,55.80
2022-12-17T02:25:50.373Z,44.50
2022-12-17T02:26:50.371Z,52.40
2022-12-17T02:27:50.373Z,50.60
2022-12-17T02:28:50.353Z,46.10
2022-12-17T02:29:50.334Z,53.40
2022-12-17T02:30:50.327Z,43.30
2022-12-17T02:31:50.391Z,48.40
2022-12-17T02:32:50.328Z,51.20
2022-12-17T02:33:50.294Z,48.10
2022-12-17T02:34:50.293Z,47.40
2022-12-17T02:35:50.275Z,50.20
2022-12-17T02:36:50.276Z,51.10
2022-12-17T02:37:50.269Z,53.90
2022-12-17T02:38:50.291Z,49.50
2022-12-17T02:39:50.238Z,53.30
2022-12-17T02:40:50.236Z,51.40
2022-12-17T02:41:50.218Z,55.60
2022-12-17T02:42:50.215Z,51.80
2022-12-17T02:43:50.226Z,55.80
2022-12-17T02:44:50.196Z,45.10
2022-12-17T02:45:50.255Z,56.30
2022-12-17T02:46:50.176Z,49.10
2022-12-17T02:47:50.166Z,55.60
2022-12-17T02:48:50.176Z,50.70
2022-12-17T02:49:50.146Z,51.20
2022-12-17T02:50:50.138Z,56.00
2022-12-17T02:51:50.129Z,52.30
2022-12-17T02:52:50.118Z,52.60
2022-12-17T02:53:50.139Z,46.00
2022-12-17T02:54:50.107Z,55.90
2022-12-17T02:55:50.088Z,51.00
2022-12-17T02:56:50.087Z,52.40
2022-12-17T02:57:53.736Z,54.70
2022-12-17T02:58:50.088Z,48.20
2022-12-17T02:59:50.050Z,57.60
2022-12-17T03:00:50.144Z,55.40
2022-12-17T03:01:50.136Z,56.20
2022-12-17T03:02:50.151Z,49.00
2022-12-17T03:03:50.540Z,50.70
2022-12-17T03:04:50.009Z,54.90
2022-12-17T03:05:49.991Z,41.70
2022-12-17T03:06:49.990Z,52.00
2022-12-17T03:07:49.970Z,46.40
2022-12-17T03:08:49.981Z,48.80
2022-12-17T03:09:49.951Z,49.70
2022-12-17T03:10:49.952Z,46.40
2022-12-17T03:11:49.951Z,51.80
2022-12-17T03:12:49.931Z,41.50
2022-12-17T03:13:49.931Z,48.70
2022-12-17T03:14:49.912Z,45.20
2022-12-17T03:15:49.931Z,44.40
2022-12-17T03:16:49.961Z,50.60
2022-12-17T03:17:49.881Z,46.40
2022-12-17T03:18:49.889Z,44.10
2022-12-17T03:19:49.861Z,41.20
2022-12-17T03:20:49.853Z,48.40
2022-12-17T03:21:49.843Z,38.10
2022-12-17T03:22:49.833Z,46.20
2022-12-17T03:23:49.833Z,41.90
2022-12-17T03:24:50.583Z,44.80
2022-12-17T03:25:49.835Z,46.30
2022-12-17T03:26:49.794Z,39.80
2022-12-17T03:27:49.782Z,49.30
2022-12-17T03:28:49.836Z,38.50
2022-12-17T03:29:49.767Z,47.00
2022-12-17T03:30:49.815Z,39.20
2022-12-17T03:31:49.745Z,46.40
2022-12-17T03:32:49.745Z,40.80
2022-12-17T03:33:49.743Z,45.10
2022-12-17T03:34:49.714Z,44.10
2022-12-17T03:35:49.706Z,45.00
2022-12-17T03:36:49.697Z,45.70
2022-12-17T03:37:49.692Z,43.60
2022-12-17T03:38:49.705Z,42.20
2022-12-17T03:39:49.675Z,43.70
2022-12-17T03:40:49.696Z,40.70
2022-12-17T03:41:49.650Z,40.00
2022-12-17T03:42:49.648Z,43.20
2022-12-17T03:43:49.647Z,38.40
2022-12-17T03:44:49.627Z,46.00
2022-12-17T03:45:49.662Z,38.70
2022-12-17T03:46:49.610Z,43.40
2022-12-17T03:47:49.598Z,45.30
2022-12-17T03:48:49.608Z,39.40
2022-12-17T03:49:49.579Z,45.90
2022-12-17T03:50:49.574Z,38.30
2022-12-17T03:51:49.557Z,46.90
2022-12-17T03:52:49.556Z,41.50
2022-12-17T03:53:49.560Z,40.40
2022-12-17T03:54:49.539Z,47.10
2022-12-17T03:55:49.521Z,39.50
2022-12-17T03:56:49.529Z,45.70
2022-12-17T03:57:49.500Z,45.70
2022-12-17T03:58:49.537Z,38.60
2022-12-17T03:59:49.530Z,47.60
2022-12-17T04:00:49.477Z,44.90
2022-12-17T04:01:49.572Z,40.40
2022-12-17T04:02:49.635Z,46.40
2022-12-17T04:03:49.509Z,38.40
2022-12-17T04:04:49.440Z,48.50
2022-12-17T04:05:49.421Z,42.10
2022-12-17T04:06:49.440Z,44.90
2022-12-17T04:07:49.402Z,45.10
2022-12-17T04:08:49.407Z,42.20
2022-12-17T04:09:49.400Z,45.80
2022-12-17T04:10:49.390Z,42.10
2022-12-17T04:11:49.368Z,39.20
2022-12-17T04:12:49.372Z,45.50
2022-12-17T04:13:49.349Z,36.70
2022-12-17T04:14:49.356Z,44.20
2022-12-17T04:15:49.383Z,44.30
2022-12-17T04:16:49.331Z,38.80
2022-12-17T04:17:49.308Z,46.40
2022-12-17T04:18:49.315Z,37.80
2022-12-17T04:19:49.303Z,44.90
2022-12-17T04:20:49.285Z,44.60
2022-12-17T04:21:49.272Z,42.00
2022-12-17T04:22:49.264Z,46.30
2022-12-17T04:23:49.254Z,40.30
2022-12-17T04:24:49.262Z,45.90
2022-12-17T04:25:49.253Z,46.40
2022-12-17T04:26:49.224Z,39.10
2022-12-17T04:27:49.227Z,45.80
2022-12-17T04:28:49.216Z,38.00
2022-12-17T04:29:49.215Z,46.30
2022-12-17T04:30:49.207Z,39.90
2022-12-17T04:31:49.175Z,45.50
2022-12-17T04:32:49.182Z,41.30
2022-12-17T04:33:49.163Z,40.60
2022-12-17T04:34:49.164Z,46.30
2022-12-17T04:35:49.156Z,37.80
2022-12-17T04:36:49.127Z,45.30
2022-12-17T04:37:49.124Z,44.30
2022-12-17T04:38:49.105Z,37.70
2022-12-17T04:39:49.116Z,46.00
2022-12-17T04:40:49.086Z,41.50
2022-12-17T04:41:49.095Z,40.60
2022-12-17T04:42:49.069Z,45.60
2022-12-17T04:43:49.066Z,37.60
2022-12-17T04:44:49.077Z,46.80
2022-12-17T04:45:49.068Z,38.50
2022-12-17T04:46:49.172Z,44.30
2022-12-17T04:47:49.026Z,43.70
2022-12-17T04:48:49.020Z,43.70
2022-12-17T04:49:49.026Z,46.00
2022-12-17T04:50:48.995Z,44.00
2022-12-17T04:51:48.989Z,45.30
2022-12-17T04:52:48.978Z,43.90
2022-12-17T04:53:48.980Z,43.80
2022-12-17T04:54:48.980Z,43.00
2022-12-17T04:55:48.958Z,42.70
2022-12-17T04:56:48.941Z,42.30
2022-12-17T04:57:48.940Z,42.10
2022-12-17T04:58:48.920Z,40.90
2022-12-17T04:59:48.931Z,42.60
2022-12-17T05:00:48.899Z,40.40
2022-12-17T05:01:48.999Z,39.10
2022-12-17T05:02:49.001Z,42.00
2022-12-17T05:03:48.959Z,38.50
2022-12-17T05:04:48.882Z,38.30
2022-12-17T05:05:48.852Z,39.90
2022-12-17T05:06:48.842Z,36.70
2022-12-17T05:07:48.834Z,39.80
2022-12-17T05:08:48.822Z,37.20
2022-12-17T05:09:48.871Z,39.50
2022-12-17T05:10:48.820Z,37.60
2022-12-17T05:11:48.803Z,36.50
2022-12-17T05:12:48.793Z,39.60
2022-12-17T05:13:48.799Z,31.60
2022-12-17T05:14:48.781Z,38.90
2022-12-17T05:15:53.141Z,36.90
2022-12-17T05:16:48.750Z,34.80
2022-12-17T05:17:48.750Z,40.00
2022-12-17T05:18:48.764Z,35.20
2022-12-17T05:19:48.740Z,39.40
2022-12-17T05:20:48.714Z,40.00
2022-12-17T05:21:48.731Z,33.60
2022-12-17T05:22:48.693Z,40.30
2022-12-17T05:23:48.683Z,37.90
2022-12-17T05:24:48.684Z,38.60
2022-12-17T05:25:48.663Z,38.10
2022-12-17T05:26:48.654Z,38.80
2022-12-17T05:27:48.646Z,41.10
2022-12-17T05:28:48.634Z,36.70
2022-12-17T05:29:48.649Z,44.10
2022-12-17T05:30:48.667Z,38.70
2022-12-17T05:31:48.615Z,39.80
2022-12-17T05:32:48.595Z,44.80
2022-12-17T05:33:48.596Z,38.50
2022-12-17T05:34:48.616Z,43.70
2022-12-17T05:35:48.576Z,40.10
2022-12-17T05:36:48.570Z,40.90
2022-12-17T05:37:48.553Z,44.70
2022-12-17T05:38:48.538Z,37.80
2022-12-17T05:39:48.558Z,41.40
2022-12-17T05:40:48.529Z,41.90
2022-12-17T05:41:48.514Z,36.60
2022-12-17T05:42:48.509Z,41.40
2022-12-17T05:43:48.496Z,40.80
2022-12-17T05:44:48.496Z,34.90
2022-12-17T05:45:48.477Z,41.80
2022-12-17T05:46:48.512Z,41.10
2022-12-17T05:47:48.458Z,39.80
2022-12-17T05:48:48.457Z,40.60
2022-12-17T05:49:48.457Z,39.30
2022-12-17T05:50:48.429Z,39.00
2022-12-17T05:51:48.418Z,38.60
2022-12-17T05:52:48.407Z,41.80
2022-12-17T05:53:48.400Z,41.10
2022-12-17T05:54:48.421Z,39.50
2022-12-17T05:55:48.379Z,39.80
2022-12-17T05:56:48.377Z,38.70
2022-12-17T05:57:53.088Z,42.20
2022-12-17T05:58:49.390Z,40.80
2022-12-17T05:59:48.368Z,40.10
2022-12-17T06:00:48.330Z,38.80
2022-12-17T06:01:48.366Z,39.10
2022-12-17T06:02:48.447Z,42.40
2022-12-17T06:03:48.405Z,42.30
2022-12-17T06:04:48.309Z,42.10
2022-12-17T06:05:48.289Z,39.20
2022-12-17T06:06:48.270Z,40.10
2022-12-17T06:07:48.271Z,42.20
2022-12-17T06:08:48.293Z,43.30
2022-12-17T06:09:48.263Z,44.40
2022-12-17T06:10:48.231Z,42.80
2022-12-17T06:11:48.236Z,43.50
2022-12-17T06:12:48.211Z,42.40
2022-12-17T06:13:48.212Z,43.50
2022-12-17T06:14:48.213Z,41.50
2022-12-17T06:15:48.218Z,35.80
2022-12-17T06:16:48.179Z,43.90
2022-12-17T06:17:48.180Z,36.00
2022-12-17T06:18:48.208Z,41.50
2022-12-17T06:19:48.171Z,42.90
2022-12-17T06:20:48.143Z,37.10
2022-12-17T06:21:48.133Z,37.10
2022-12-17T06:22:48.123Z,43.00
2022-12-17T06:23:48.116Z,35.80
2022-12-17T06:24:48.125Z,42.00
2022-12-17T06:25:48.093Z,49.00
2022-12-17T06:26:48.082Z,62.30
2022-12-17T06:27:48.076Z,56.60
2022-12-17T06:28:48.064Z,56.10
2022-12-17T06:29:48.075Z,52.30
2022-12-17T06:30:48.045Z,46.00
2022-12-17T06:31:48.121Z,54.10
2022-12-17T06:32:48.024Z,43.30
2022-12-17T06:33:48.043Z,49.70
2022-12-17T06:34:48.035Z,48.50
2022-12-17T06:35:48.006Z,50.30
2022-12-17T06:36:47.985Z,43.70
2022-12-17T06:37:47.987Z,46.90
2022-12-17T06:38:47.968Z,37.70
2022-12-17T06:39:47.978Z,46.10
2022-12-17T06:40:47.945Z,40.50
2022-12-17T06:41:47.947Z,43.30
2022-12-17T06:42:47.926Z,39.20
2022-12-17T06:43:47.928Z,39.00
2022-12-17T06:44:47.936Z,40.70
2022-12-17T06:45:47.907Z,35.70
2022-12-17T06:46:47.960Z,42.80
2022-12-17T06:47:47.886Z,37.80
2022-12-17T06:48:47.889Z,41.00
2022-12-17T06:49:47.936Z,41.90
2022-12-17T06:50:47.856Z,38.00
2022-12-17T06:51:47.858Z,46.90
2022-12-17T06:52:47.848Z,37.80
2022-12-17T06:53:47.876Z,43.80
2022-12-17T06:54:47.829Z,37.10
2022-12-17T06:55:47.809Z,40.20
2022-12-17T06:56:47.798Z,44.50
2022-12-17T06:57:50.522Z,34.60
2022-12-17T06:58:47.809Z,43.60
2022-12-17T06:59:47.789Z,37.00
2022-12-17T07:00:47.789Z,41.60
2022-12-17T07:01:47.868Z,45.10
2022-12-17T07:02:47.874Z,39.90
2022-12-17T07:03:47.731Z,44.90
2022-12-17T07:04:47.744Z,38.40
2022-12-17T07:05:47.677Z,42.10
2022-12-17T07:06:47.652Z,44.80
2022-12-17T07:07:47.653Z,35.30
2022-12-17T07:08:47.636Z,45.90
2022-12-17T07:09:47.641Z,36.80
2022-12-17T07:10:47.619Z,47.10
2022-12-17T07:11:47.678Z,37.60
2022-12-17T07:12:47.590Z,46.10
2022-12-17T07:13:47.590Z,40.40
2022-12-17T07:14:47.602Z,45.50
2022-12-17T07:15:47.573Z,42.60
2022-12-17T07:16:47.622Z,40.30
2022-12-17T07:17:47.553Z,47.50
2022-12-17T07:18:47.544Z,38.00
2022-12-17T07:19:47.533Z,46.40
2022-12-17T07:20:47.533Z,38.70
2022-12-17T07:21:47.514Z,45.50
2022-12-17T07:22:47.495Z,39.00
2022-12-17T07:23:47.494Z,43.80
2022-12-17T07:24:47.484Z,42.90
2022-12-17T07:25:47.490Z,40.50
2022-12-17T07:26:47.463Z,45.30
2022-12-17T07:27:47.453Z,36.60
2022-12-17T07:28:47.434Z,47.40
2022-12-17T07:29:47.444Z,38.50
2022-12-17T07:30:51.334Z,46.80
2022-12-17T07:31:48.461Z,42.70
2022-12-17T07:32:47.407Z,38.70
2022-12-17T07:33:47.396Z,45.80
2022-12-17T07:34:47.386Z,39.90
2022-12-17T07:35:47.396Z,49.80
2022-12-17T07:36:47.363Z,45.70
2022-12-17T07:37:47.359Z,43.60
2022-12-17T07:38:47.346Z,53.70
2022-12-17T07:39:47.341Z,43.70
2022-12-17T07:40:47.340Z,55.20
2022-12-17T07:41:47.323Z,53.90
2022-12-17T07:42:47.305Z,50.60
2022-12-17T07:43:52.764Z,57.00
2022-12-17T07:44:48.288Z,47.30
2022-12-17T07:45:47.339Z,54.90
2022-12-17T07:46:47.267Z,54.30
2022-12-17T07:47:47.278Z,45.40
2022-12-17T07:48:47.251Z,56.90
2022-12-17T07:49:47.248Z,45.80
2022-12-17T07:50:47.256Z,56.80
2022-12-17T07:51:47.221Z,46.20
2022-12-17T07:52:47.215Z,55.90
2022-12-17T07:53:47.210Z,48.00
2022-12-17T07:54:47.199Z,53.10
2022-12-17T07:55:47.206Z,53.60
2022-12-17T07:56:47.168Z,46.10
2022-12-17T07:57:47.168Z,54.20
2022-12-17T07:58:47.149Z,45.90
2022-12-17T07:59:47.150Z,54.90
2022-12-17T08:00:49.453Z,46.30
2022-12-17T08:01:47.223Z,51.80
2022-12-17T08:02:47.198Z,54.00
2022-12-17T08:03:47.152Z,45.10
2022-12-17T08:04:47.091Z,54.00
2022-12-17T08:05:47.121Z,49.80
2022-12-17T08:06:47.079Z,47.20
2022-12-17T08:07:47.072Z,54.20
2022-12-17T08:08:47.061Z,44.10
2022-12-17T08:09:47.058Z,54.10
2022-12-17T08:10:47.063Z,44.60
2022-12-17T08:11:47.034Z,55.30
2022-12-17T08:12:47.022Z,49.30
2022-12-17T08:13:47.024Z,49.20
2022-12-17T08:14:47.001Z,56.20
2022-12-17T08:15:47.025Z,43.30
2022-12-17T08:16:47.116Z,56.30
2022-12-17T08:17:46.975Z,45.90
2022-12-17T08:18:46.963Z,55.80
2022-12-17T08:19:46.967Z,53.20
2022-12-17T08:20:46.964Z,46.10
2022-12-17T08:21:46.942Z,55.10
2022-12-17T08:22:47.765Z,42.40
2022-12-17T08:23:46.923Z,53.80
2022-12-17T08:24:47.014Z,44.60
2022-12-17T08:25:46.957Z,51.90
2022-12-17T08:26:48.306Z,52.10
2022-12-17T08:27:46.886Z,53.70
2022-12-17T08:28:51.179Z,51.60
2022-12-17T08:29:47.004Z,52.70
2022-12-17T08:30:46.907Z,51.60
2022-12-17T08:31:46.843Z,52.90
2022-12-17T08:32:46.825Z,52.40
2022-12-17T08:33:46.836Z,55.90
2022-12-17T08:34:46.807Z,54.60
2022-12-17T08:35:46.816Z,55.20
2022-12-17T08:36:46.795Z,51.80
2022-12-17T08:37:46.789Z,51.00
2022-12-17T08:38:46.769Z,50.80
2022-12-17T08:39:46.765Z,52.10
2022-12-17T08:40:46.779Z,50.10
2022-12-17T08:41:52.622Z,48.00
2022-12-17T08:42:47.738Z,44.70
2022-12-17T08:43:46.718Z,46.90
2022-12-17T08:44:46.718Z,48.40
2022-12-17T08:45:46.755Z,46.50
2022-12-17T08:46:46.698Z,46.80
2022-12-17T08:47:46.692Z,47.30
2022-12-17T08:48:46.679Z,49.70
2022-12-17T08:49:46.666Z,49.50
2022-12-17T08:50:46.677Z,48.90
2022-12-17T08:51:46.648Z,49.90
2022-12-17T08:52:46.639Z,46.60
2022-12-17T08:53:46.629Z,46.30
2022-12-17T08:54:46.623Z,45.60
2022-12-17T08:55:46.628Z,44.60
2022-12-17T08:56:46.609Z,45.70
2022-12-17T08:57:46.590Z,44.40
2022-12-17T08:58:46.589Z,43.20
2022-12-17T08:59:46.572Z,44.00
2022-12-17T09:00:46.589Z,47.30
2022-12-17T09:01:46.653Z,43.00
2022-12-17T09:02:46.614Z,44.20
2022-12-17T09:03:46.608Z,44.70
2022-12-17T09:04:46.530Z,45.40
2022-12-17T09:05:46.530Z,46.90
2022-12-17T09:06:46.508Z,42.90
2022-12-17T09:07:46.492Z,43.90
2022-12-17T09:08:46.491Z,43.20
2022-12-17T09:09:46.472Z,43.10
2022-12-17T09:10:46.489Z,42.60
2022-12-17T09:11:46.454Z,42.20
2022-12-17T09:12:46.452Z,45.50
2022-12-17T09:13:46.440Z,42.00
2022-12-17T09:14:46.434Z,49.00
2022-12-17T09:15:46.433Z,47.40
2022-12-17T09:16:46.453Z,48.50
2022-12-17T09:17:46.400Z,48.90
2022-12-17T09:18:46.399Z,49.90
2022-12-17T09:19:46.383Z,47.50
2022-12-17T09:20:46.391Z,51.10
2022-12-17T09:21:46.363Z,47.30
2022-12-17T09:22:46.354Z,51.00
2022-12-17T09:23:46.343Z,47.30
2022-12-17T09:24:46.336Z,49.60
2022-12-17T09:25:46.346Z,48.20
2022-12-17T09:26:46.322Z,47.10
2022-12-17T09:27:46.305Z,48.70
2022-12-17T09:28:46.312Z,51.30
2022-12-17T09:29:46.285Z,51.20
2022-12-17T09:30:46.332Z,52.00
2022-12-17T09:31:46.267Z,49.80
2022-12-17T09:32:46.262Z,54.40
2022-12-17T09:33:46.255Z,50.10
2022-12-17T09:34:46.248Z,55.80
2022-12-17T09:35:46.246Z,50.90
2022-12-17T09:36:51.035Z,52.00
2022-12-17T09:37:47.231Z,55.10
2022-12-17T09:38:46.204Z,51.90
2022-12-17T09:39:46.187Z,49.90
2022-12-17T09:40:46.199Z,51.20
2022-12-17T09:41:46.166Z,53.80
2022-12-17T09:42:50.941Z,52.40
2022-12-17T09:43:47.147Z,51.00
2022-12-17T09:44:46.147Z,53.30
2022-12-17T09:45:46.195Z,52.40
2022-12-17T09:46:46.145Z,50.60
2022-12-17T09:47:46.113Z,49.70
2022-12-17T09:48:46.116Z,47.60
2022-12-17T09:49:46.098Z,47.60
2022-12-17T09:50:46.111Z,45.50
2022-12-17T09:51:46.075Z,45.90
2022-12-17T09:52:46.069Z,46.00
2022-12-17T09:53:46.059Z,45.20
2022-12-17T09:54:46.051Z,45.40
2022-12-17T09:55:46.059Z,45.20
2022-12-17T09:56:46.030Z,45.20
2022-12-17T09:57:46.020Z,44.50
2022-12-17T09:58:46.018Z,47.10
2022-12-17T09:59:46.001Z,45.40
2022-12-17T10:00:46.015Z,46.70
2022-12-17T10:01:46.121Z,46.70
2022-12-17T10:02:46.158Z,48.80
2022-12-17T10:03:46.002Z,49.10
2022-12-17T10:04:45.959Z,49.10
2022-12-17T10:05:45.960Z,48.20
2022-12-17T10:06:45.941Z,47.60
2022-12-17T10:07:45.924Z,49.20
2022-12-17T10:08:45.922Z,51.70
2022-12-17T10:09:45.902Z,53.30
2022-12-17T10:10:45.920Z,50.80
2022-12-17T10:11:45.894Z,50.30
2022-12-17T10:12:45.882Z,52.10
2022-12-17T10:13:45.864Z,50.90
2022-12-17T10:14:45.863Z,54.30
2022-12-17T10:15:45.918Z,57.10
2022-12-17T10:16:45.844Z,55.30
2022-12-17T10:17:45.823Z,54.40
2022-12-17T10:18:45.824Z,50.50
2022-12-17T10:19:47.707Z,51.10
2022-12-17T10:20:45.875Z,51.80
2022-12-17T10:21:45.804Z,49.90
2022-12-17T10:22:45.784Z,51.30
2022-12-17T10:23:45.793Z,52.80
2022-12-17T10:24:46.614Z,52.90
2022-12-17T10:25:45.766Z,53.30
2022-12-17T10:26:45.774Z,51.80
2022-12-17T10:27:45.735Z,51.50
2022-12-17T10:28:45.735Z,51.60
2022-12-17T10:29:48.025Z,50.40
2022-12-17T10:30:45.740Z,49.70
2022-12-17T10:31:45.714Z,50.50
2022-12-17T10:32:45.695Z,51.00
2022-12-17T10:33:45.675Z,51.30
2022-12-17T10:34:45.676Z,49.60
2022-12-17T10:35:45.656Z,50.70
2022-12-17T10:36:45.672Z,47.80
2022-12-17T10:37:45.638Z,49.50
2022-12-17T10:38:45.638Z,50.00
2022-12-17T10:39:45.617Z,49.40
2022-12-17T10:40:45.607Z,49.80
2022-12-17T10:41:45.627Z,50.50
2022-12-17T10:42:45.603Z,51.10
2022-12-17T10:43:45.589Z,50.40
2022-12-17T10:44:45.579Z,51.90
2022-12-17T10:45:45.572Z,53.60
2022-12-17T10:46:45.625Z,50.00
2022-12-17T10:47:45.555Z,52.30
2022-12-17T10:48:45.539Z,49.50
2022-12-17T10:49:45.528Z,50.40
2022-12-17T10:50:45.522Z,49.80
2022-12-17T10:51:45.526Z,63.10
2022-12-17T10:52:45.500Z,59.20
2022-12-17T10:53:45.496Z,50.40
2022-12-17T10:54:49.112Z,52.40
2022-12-17T10:55:45.468Z,53.90
2022-12-17T10:56:45.493Z,51.40
2022-12-17T10:57:45.447Z,53.40
2022-12-17T10:58:45.439Z,52.00
2022-12-17T10:59:45.421Z,52.40
2022-12-17T11:00:49.667Z,51.70
2022-12-17T11:01:46.561Z,49.80
2022-12-17T11:02:45.557Z,52.80
2022-12-17T11:03:45.433Z,50.10
2022-12-17T11:04:45.382Z,51.70
2022-12-17T11:05:45.371Z,51.60
2022-12-17T11:06:45.386Z,51.80
2022-12-17T11:07:45.342Z,52.90
2022-12-17T11:08:45.349Z,51.40
2022-12-17T11:09:45.333Z,51.30
2022-12-17T11:10:45.323Z,51.00
2022-12-17T11:11:45.323Z,51.30
2022-12-17T11:12:45.303Z,53.30
2022-12-17T11:13:45.285Z,56.10
2022-12-17T11:14:45.285Z,52.90
2022-12-17T11:15:45.336Z,52.80
2022-12-17T11:16:45.296Z,55.10
2022-12-17T11:17:45.253Z,51.70
2022-12-17T11:18:45.262Z,51.30
2022-12-17T11:19:45.234Z,53.40
2022-12-17T11:20:45.224Z,51.50
2022-12-17T11:21:45.224Z,52.40
2022-12-17T11:22:45.213Z,50.60
2022-12-17T11:23:45.197Z,52.00
2022-12-17T11:24:45.192Z,51.80
2022-12-17T11:25:45.181Z,50.50
2022-12-17T11:26:45.187Z,51.00
2022-12-17T11:27:45.157Z,50.40
2022-12-17T11:28:45.146Z,49.90
2022-12-17T11:29:45.128Z,50.40
2022-12-17T11:30:45.126Z,50.00
2022-12-17T11:31:45.206Z,50.10
2022-12-17T11:32:45.107Z,51.00
2022-12-17T11:33:45.107Z,52.50
2022-12-17T11:34:45.088Z,51.80
2022-12-17T11:35:45.100Z,51.00
2022-12-17T11:36:45.109Z,52.50
2022-12-17T11:37:45.056Z,54.00
2022-12-17T11:38:45.057Z,53.20
2022-12-17T11:39:45.040Z,52.10
2022-12-17T11:40:45.037Z,52.50
2022-12-17T11:41:45.031Z,54.50
2022-12-17T11:42:45.027Z,52.40
2022-12-17T11:43:44.999Z,53.10
2022-12-17T11:44:45.044Z,53.20
2022-12-17T11:45:44.980Z,51.50
2022-12-17T11:46:45.030Z,51.40
2022-12-17T11:47:44.960Z,50.50
2022-12-17T11:48:44.962Z,51.20
2022-12-17T11:49:44.941Z,51.40
2022-12-17T11:50:44.938Z,53.00
2022-12-17T11:51:44.941Z,51.30
2022-12-17T11:52:44.918Z,50.00
2022-12-17T11:53:44.902Z,50.40
2022-12-17T11:54:44.892Z,51.00
2022-12-17T11:55:44.888Z,49.40
2022-12-17T11:56:44.902Z,50.10
2022-12-17T11:57:44.862Z,50.70
2022-12-17T11:58:44.862Z,49.80
2022-12-17T11:59:50.973Z,49.20
2022-12-17T12:00:45.844Z,49.40
2022-12-17T12:01:44.904Z,47.00
2022-12-17T12:02:44.971Z,49.80
2022-12-17T12:03:44.965Z,49.80
2022-12-17T12:04:44.829Z,49.00
2022-12-17T12:05:44.786Z,49.00
2022-12-17T12:06:44.782Z,49.20
2022-12-17T12:07:44.786Z,48.90
2022-12-17T12:08:44.763Z,50.40
2022-12-17T12:09:44.744Z,48.80
2022-12-17T12:10:44.743Z,50.60
2022-12-17T12:11:44.725Z,48.50
2022-12-17T12:12:44.737Z,48.60
2022-12-17T12:13:44.715Z,47.40
2022-12-17T12:14:44.712Z,47.80
2022-12-17T12:15:44.746Z,48.20
2022-12-17T12:16:44.722Z,49.10
2022-12-17T12:17:44.687Z,48.50
2022-12-17T12:18:44.664Z,50.00
2022-12-17T12:19:44.646Z,49.70
2022-12-17T12:20:44.646Z,50.00
2022-12-17T12:21:44.627Z,50.20
2022-12-17T12:22:44.656Z,45.50
2022-12-17T12:23:44.608Z,50.70
2022-12-17T12:24:44.662Z,51.90
2022-12-17T12:25:44.598Z,49.80
2022-12-17T12:26:44.587Z,56.80
2022-12-17T12:27:44.596Z,53.50
2022-12-17T12:28:44.566Z,48.90
2022-12-17T12:29:44.548Z,104.30
2022-12-17T12:30:44.540Z,66.10
2022-12-17T12:31:44.594Z,103.10
2022-12-17T12:32:44.540Z,100.90
2022-12-17T12:33:44.509Z,68.90
2022-12-17T12:34:44.511Z,82.40
2022-12-17T12:35:44.501Z,59.40
2022-12-17T12:36:44.491Z,51.50
2022-12-17T12:37:44.498Z,71.20
2022-12-17T12:38:46.461Z,66.50
2022-12-17T12:39:44.461Z,53.50
2022-12-17T12:40:44.458Z,46.40
2022-12-17T12:41:44.432Z,49.20
2022-12-17T12:42:44.451Z,50.80
2022-12-17T12:43:44.420Z,54.30
2022-12-17T12:44:49.478Z,53.30
2022-12-17T12:45:45.420Z,49.40
2022-12-17T12:46:44.401Z,49.80
2022-12-17T12:47:44.393Z,60.10
2022-12-17T12:48:44.372Z,70.10
2022-12-17T12:49:44.354Z,63.10
2022-12-17T12:50:44.355Z,65.20
2022-12-17T12:51:44.343Z,66.30
2022-12-17T12:52:44.353Z,62.90